sensor_id;sensor_type;location;lat;lon;timestamp;P1;durP1;ratioP1;P2;durP2;ratioP2
51660;SDS011;37741;49.748;8.490;2024-01-30T00:00:14;13.85;;;9.23;;
51660;SDS011;37741;49.748;8.490;2024-01-30T00:02:40;12.85;;;9.90;;
51660;SDS011;37741;49.748;8.490;2024-01-30T00:05:08;14.10;;;9.73;;
51660;SDS011;37741;49.748;8.490;2024-01-30T00:07:33;13.77;;;10.52;;
51660;SDS011;37741;49.748;8.490;2024-01-30T00:09:59;11.82;;;8.75;;
51660;SDS011;37741;49.748;8.490;2024-01-30T00:12:24;14.23;;;9.07;;
51660;SDS011;37741;49.748;8.490;2024-01-30T00:14:51;15.45;;;10.45;;
51660;SDS011;37741;49.748;8.490;2024-01-30T00:17:17;12.05;;;9.63;;
51660;SDS011;37741;49.748;8.490;2024-01-30T00:19:42;13.00;;;9.73;;
51660;SDS011;37741;49.748;8.490;2024-01-30T00:22:08;14.23;;;9.27;;
51660;SDS011;37741;49.748;8.490;2024-01-30T00:24:34;14.63;;;10.23;;
51660;SDS011;37741;49.748;8.490;2024-01-30T00:26:59;13.27;;;10.35;;
51660;SDS011;37741;49.748;8.490;2024-01-30T00:29:25;11.63;;;9.57;;
51660;SDS011;37741;49.748;8.490;2024-01-30T00:31:55;12.27;;;9.55;;
51660;SDS011;37741;49.748;8.490;2024-01-30T00:34:20;14.07;;;10.07;;
51660;SDS011;37741;49.748;8.490;2024-01-30T00:36:46;13.65;;;10.30;;
51660;SDS011;37741;49.748;8.490;2024-01-30T00:39:12;14.25;;;10.10;;
51660;SDS011;37741;49.748;8.490;2024-01-30T00:41:37;15.32;;;10.70;;
51660;SDS011;37741;49.748;8.490;2024-01-30T00:44:03;13.95;;;10.05;;
51660;SDS011;37741;49.748;8.490;2024-01-30T00:46:29;14.05;;;10.65;;
51660;SDS011;37741;49.748;8.490;2024-01-30T00:48:54;14.20;;;10.32;;
51660;SDS011;37741;49.748;8.490;2024-01-30T00:51:20;13.30;;;10.50;;
51660;SDS011;37741;49.748;8.490;2024-01-30T00:53:45;15.07;;;10.30;;
51660;SDS011;37741;49.748;8.490;2024-01-30T00:56:12;14.93;;;10.43;;
51660;SDS011;37741;49.748;8.490;2024-01-30T00:58:37;14.48;;;10.68;;
51660;SDS011;37741;49.748;8.490;2024-01-30T01:01:03;14.90;;;10.48;;
51660;SDS011;37741;49.748;8.490;2024-01-30T01:03:28;14.98;;;10.57;;
51660;SDS011;37741;49.748;8.490;2024-01-30T01:05:54;17.38;;;10.75;;
51660;SDS011;37741;49.748;8.490;2024-01-30T01:08:20;14.82;;;10.65;;
51660;SDS011;37741;49.748;8.490;2024-01-30T01:10:45;15.35;;;10.73;;
51660;SDS011;37741;49.748;8.490;2024-01-30T01:13:11;13.80;;;10.15;;
51660;SDS011;37741;49.748;8.490;2024-01-30T01:15:37;14.35;;;10.65;;
51660;SDS011;37741;49.748;8.490;2024-01-30T01:18:11;14.77;;;11.35;;
51660;SDS011;37741;49.748;8.490;2024-01-30T01:20:37;17.50;;;11.50;;
51660;SDS011;37741;49.748;8.490;2024-01-30T01:23:02;13.50;;;10.55;;
51660;SDS011;37741;49.748;8.490;2024-01-30T01:25:28;15.10;;;11.13;;
51660;SDS011;37741;49.748;8.490;2024-01-30T01:27:54;14.93;;;10.98;;
51660;SDS011;37741;49.748;8.490;2024-01-30T01:30:19;12.77;;;10.73;;
51660;SDS011;37741;49.748;8.490;2024-01-30T01:32:49;15.73;;;12.25;;
51660;SDS011;37741;49.748;8.490;2024-01-30T01:35:20;17.67;;;11.18;;
51660;SDS011;37741;49.748;8.490;2024-01-30T01:37:47;13.10;;;10.63;;
51660;SDS011;37741;49.748;8.490;2024-01-30T01:40:19;16.02;;;11.82;;
51660;SDS011;37741;49.748;8.490;2024-01-30T01:42:49;15.75;;;11.20;;
51660;SDS011;37741;49.748;8.490;2024-01-30T01:45:17;15.35;;;11.30;;
51660;SDS011;37741;49.748;8.490;2024-01-30T01:47:43;14.48;;;10.55;;
51660;SDS011;37741;49.748;8.490;2024-01-30T01:50:11;16.58;;;12.20;;
51660;SDS011;37741;49.748;8.490;2024-01-30T01:52:38;14.23;;;10.27;;
51660;SDS011;37741;49.748;8.490;2024-01-30T01:55:06;14.43;;;11.13;;
51660;SDS011;37741;49.748;8.490;2024-01-30T01:57:33;14.35;;;11.15;;
51660;SDS011;37741;49.748;8.490;2024-01-30T01:59:59;15.52;;;11.38;;
51660;SDS011;37741;49.748;8.490;2024-01-30T02:02:26;16.45;;;11.13;;
51660;SDS011;37741;49.748;8.490;2024-01-30T02:04:56;12.88;;;10.63;;
51660;SDS011;37741;49.748;8.490;2024-01-30T02:07:23;13.93;;;10.93;;
51660;SDS011;37741;49.748;8.490;2024-01-30T02:09:49;14.40;;;11.27;;
51660;SDS011;37741;49.748;8.490;2024-01-30T02:12:15;14.88;;;10.65;;
51660;SDS011;37741;49.748;8.490;2024-01-30T02:14:44;13.80;;;10.77;;
51660;SDS011;37741;49.748;8.490;2024-01-30T02:17:11;15.68;;;11.23;;
51660;SDS011;37741;49.748;8.490;2024-01-30T02:19:37;16.55;;;11.18;;
51660;SDS011;37741;49.748;8.490;2024-01-30T02:22:04;14.80;;;10.75;;
51660;SDS011;37741;49.748;8.490;2024-01-30T02:24:30;14.85;;;11.00;;
51660;SDS011;37741;49.748;8.490;2024-01-30T02:26:56;13.35;;;10.20;;
51660;SDS011;37741;49.748;8.490;2024-01-30T02:29:22;16.52;;;10.88;;
51660;SDS011;37741;49.748;8.490;2024-01-30T02:31:47;14.23;;;10.93;;
51660;SDS011;37741;49.748;8.490;2024-01-30T02:34:13;13.00;;;9.52;;
51660;SDS011;37741;49.748;8.490;2024-01-30T02:36:42;14.70;;;11.27;;
51660;SDS011;37741;49.748;8.490;2024-01-30T02:39:08;14.15;;;10.63;;
51660;SDS011;37741;49.748;8.490;2024-01-30T02:41:35;14.90;;;10.25;;
51660;SDS011;37741;49.748;8.490;2024-01-30T02:44:01;12.70;;;10.18;;
51660;SDS011;37741;49.748;8.490;2024-01-30T02:46:27;13.88;;;10.50;;
51660;SDS011;37741;49.748;8.490;2024-01-30T02:48:53;12.95;;;9.95;;
51660;SDS011;37741;49.748;8.490;2024-01-30T02:51:19;12.70;;;9.88;;
51660;SDS011;37741;49.748;8.490;2024-01-30T02:53:45;14.85;;;11.68;;
51660;SDS011;37741;49.748;8.490;2024-01-30T02:56:10;12.63;;;9.20;;
51660;SDS011;37741;49.748;8.490;2024-01-30T02:58:38;14.90;;;10.13;;
51660;SDS011;37741;49.748;8.490;2024-01-30T03:01:05;15.65;;;11.02;;
51660;SDS011;37741;49.748;8.490;2024-01-30T03:03:34;13.50;;;9.98;;
51660;SDS011;37741;49.748;8.490;2024-01-30T03:06:01;16.42;;;9.90;;
51660;SDS011;37741;49.748;8.490;2024-01-30T03:08:27;11.88;;;9.30;;
51660;SDS011;37741;49.748;8.490;2024-01-30T03:10:53;12.82;;;9.10;;
51660;SDS011;37741;49.748;8.490;2024-01-30T03:13:19;14.38;;;10.15;;
51660;SDS011;37741;49.748;8.490;2024-01-30T03:15:44;15.00;;;9.73;;
51660;SDS011;37741;49.748;8.490;2024-01-30T03:18:10;15.73;;;9.77;;
51660;SDS011;37741;49.748;8.490;2024-01-30T03:20:36;13.70;;;9.43;;
51660;SDS011;37741;49.748;8.490;2024-01-30T03:23:02;15.32;;;10.63;;
51660;SDS011;37741;49.748;8.490;2024-01-30T03:25:27;13.38;;;9.45;;
51660;SDS011;37741;49.748;8.490;2024-01-30T03:27:53;12.35;;;9.75;;
51660;SDS011;37741;49.748;8.490;2024-01-30T03:30:19;11.05;;;8.82;;
51660;SDS011;37741;49.748;8.490;2024-01-30T03:32:45;12.02;;;9.63;;
51660;SDS011;37741;49.748;8.490;2024-01-30T03:35:10;13.93;;;9.85;;
51660;SDS011;37741;49.748;8.490;2024-01-30T03:37:36;13.07;;;9.60;;
51660;SDS011;37741;49.748;8.490;2024-01-30T03:40:02;12.15;;;9.05;;
51660;SDS011;37741;49.748;8.490;2024-01-30T03:42:28;12.60;;;9.40;;
51660;SDS011;37741;49.748;8.490;2024-01-30T03:44:54;14.15;;;9.07;;
51660;SDS011;37741;49.748;8.490;2024-01-30T03:47:20;12.73;;;9.70;;
51660;SDS011;37741;49.748;8.490;2024-01-30T03:49:46;11.50;;;9.32;;
51660;SDS011;37741;49.748;8.490;2024-01-30T03:52:12;11.77;;;9.30;;
51660;SDS011;37741;49.748;8.490;2024-01-30T03:54:37;14.13;;;9.88;;
51660;SDS011;37741;49.748;8.490;2024-01-30T03:57:03;13.65;;;9.55;;
51660;SDS011;37741;49.748;8.490;2024-01-30T03:59:29;12.75;;;9.07;;
51660;SDS011;37741;49.748;8.490;2024-01-30T04:01:54;10.68;;;8.60;;
51660;SDS011;37741;49.748;8.490;2024-01-30T04:04:20;14.20;;;9.35;;
51660;SDS011;37741;49.748;8.490;2024-01-30T04:06:46;13.27;;;9.10;;
51660;SDS011;37741;49.748;8.490;2024-01-30T04:09:12;12.40;;;8.80;;
51660;SDS011;37741;49.748;8.490;2024-01-30T04:11:41;11.98;;;8.82;;
51660;SDS011;37741;49.748;8.490;2024-01-30T04:14:07;12.45;;;9.38;;
51660;SDS011;37741;49.748;8.490;2024-01-30T04:16:33;13.13;;;9.38;;
51660;SDS011;37741;49.748;8.490;2024-01-30T04:18:59;14.60;;;8.75;;
51660;SDS011;37741;49.748;8.490;2024-01-30T04:21:24;13.02;;;8.85;;
51660;SDS011;37741;49.748;8.490;2024-01-30T04:23:50;13.75;;;9.30;;
51660;SDS011;37741;49.748;8.490;2024-01-30T04:26:16;11.07;;;8.48;;
51660;SDS011;37741;49.748;8.490;2024-01-30T04:28:42;12.82;;;8.75;;
51660;SDS011;37741;49.748;8.490;2024-01-30T04:31:09;14.48;;;9.80;;
51660;SDS011;37741;49.748;8.490;2024-01-30T04:33:35;12.55;;;8.77;;
51660;SDS011;37741;49.748;8.490;2024-01-30T04:36:01;13.07;;;9.13;;
51660;SDS011;37741;49.748;8.490;2024-01-30T04:38:28;14.50;;;8.85;;
51660;SDS011;37741;49.748;8.490;2024-01-30T04:40:53;12.85;;;9.23;;
51660;SDS011;37741;49.748;8.490;2024-01-30T04:43:19;12.70;;;8.50;;
51660;SDS011;37741;49.748;8.490;2024-01-30T04:45:45;12.32;;;9.70;;
51660;SDS011;37741;49.748;8.490;2024-01-30T04:48:10;12.27;;;9.18;;
51660;SDS011;37741;49.748;8.490;2024-01-30T04:50:36;12.45;;;9.00;;
51660;SDS011;37741;49.748;8.490;2024-01-30T04:53:01;10.48;;;8.55;;
51660;SDS011;37741;49.748;8.490;2024-01-30T04:55:27;12.77;;;8.50;;
51660;SDS011;37741;49.748;8.490;2024-01-30T04:57:53;12.73;;;9.30;;
51660;SDS011;37741;49.748;8.490;2024-01-30T05:00:18;11.77;;;8.77;;
51660;SDS011;37741;49.748;8.490;2024-01-30T05:02:44;10.65;;;8.32;;
51660;SDS011;37741;49.748;8.490;2024-01-30T05:05:10;12.35;;;8.85;;
51660;SDS011;37741;49.748;8.490;2024-01-30T05:07:36;11.57;;;8.02;;
51660;SDS011;37741;49.748;8.490;2024-01-30T05:10:02;13.57;;;8.98;;
51660;SDS011;37741;49.748;8.490;2024-01-30T05:12:28;11.95;;;8.73;;
51660;SDS011;37741;49.748;8.490;2024-01-30T05:14:53;12.05;;;9.27;;
51660;SDS011;37741;49.748;8.490;2024-01-30T05:17:19;11.40;;;8.52;;
51660;SDS011;37741;49.748;8.490;2024-01-30T05:19:45;12.60;;;8.93;;
51660;SDS011;37741;49.748;8.490;2024-01-30T05:22:11;12.02;;;8.55;;
51660;SDS011;37741;49.748;8.490;2024-01-30T05:24:40;11.32;;;8.95;;
51660;SDS011;37741;49.748;8.490;2024-01-30T05:27:07;11.07;;;8.75;;
51660;SDS011;37741;49.748;8.490;2024-01-30T05:29:33;11.52;;;8.65;;
51660;SDS011;37741;49.748;8.490;2024-01-30T05:31:58;12.10;;;8.45;;
51660;SDS011;37741;49.748;8.490;2024-01-30T05:34:24;12.70;;;9.20;;
51660;SDS011;37741;49.748;8.490;2024-01-30T05:36:49;12.75;;;8.95;;
51660;SDS011;37741;49.748;8.490;2024-01-30T05:39:15;14.30;;;8.73;;
51660;SDS011;37741;49.748;8.490;2024-01-30T05:41:41;11.10;;;8.38;;
51660;SDS011;37741;49.748;8.490;2024-01-30T05:44:06;13.48;;;8.48;;
51660;SDS011;37741;49.748;8.490;2024-01-30T05:46:33;11.60;;;9.20;;
51660;SDS011;37741;49.748;8.490;2024-01-30T05:49:00;13.68;;;9.13;;
51660;SDS011;37741;49.748;8.490;2024-01-30T05:51:29;12.55;;;9.27;;
51660;SDS011;37741;49.748;8.490;2024-01-30T05:53:55;14.07;;;9.40;;
51660;SDS011;37741;49.748;8.490;2024-01-30T05:56:21;13.38;;;9.38;;
51660;SDS011;37741;49.748;8.490;2024-01-30T05:58:49;13.43;;;9.48;;
51660;SDS011;37741;49.748;8.490;2024-01-30T06:01:17;12.60;;;9.05;;
51660;SDS011;37741;49.748;8.490;2024-01-30T06:03:45;12.10;;;9.32;;
51660;SDS011;37741;49.748;8.490;2024-01-30T06:06:11;14.80;;;10.00;;
51660;SDS011;37741;49.748;8.490;2024-01-30T06:08:40;12.90;;;9.50;;
51660;SDS011;37741;49.748;8.490;2024-01-30T06:11:09;13.00;;;10.15;;
51660;SDS011;37741;49.748;8.490;2024-01-30T06:13:37;12.77;;;9.02;;
51660;SDS011;37741;49.748;8.490;2024-01-30T06:16:04;12.18;;;9.63;;
51660;SDS011;37741;49.748;8.490;2024-01-30T06:18:31;11.68;;;9.70;;
51660;SDS011;37741;49.748;8.490;2024-01-30T06:20:59;14.35;;;10.93;;
51660;SDS011;37741;49.748;8.490;2024-01-30T06:23:26;14.75;;;11.35;;
51660;SDS011;37741;49.748;8.490;2024-01-30T06:25:52;12.93;;;10.23;;
51660;SDS011;37741;49.748;8.490;2024-01-30T06:28:18;14.93;;;10.18;;
51660;SDS011;37741;49.748;8.490;2024-01-30T06:30:43;15.88;;;10.55;;
51660;SDS011;37741;49.748;8.490;2024-01-30T06:33:11;15.02;;;11.02;;
51660;SDS011;37741;49.748;8.490;2024-01-30T06:35:37;13.82;;;10.88;;
51660;SDS011;37741;49.748;8.490;2024-01-30T06:38:08;16.10;;;12.30;;
51660;SDS011;37741;49.748;8.490;2024-01-30T06:40:34;14.65;;;10.63;;
51660;SDS011;37741;49.748;8.490;2024-01-30T06:42:59;13.38;;;10.20;;
51660;SDS011;37741;49.748;8.490;2024-01-30T06:45:25;14.05;;;11.32;;
51660;SDS011;37741;49.748;8.490;2024-01-30T06:47:51;15.05;;;11.05;;
51660;SDS011;37741;49.748;8.490;2024-01-30T06:50:19;13.93;;;10.77;;
51660;SDS011;37741;49.748;8.490;2024-01-30T06:52:48;15.57;;;11.23;;
51660;SDS011;37741;49.748;8.490;2024-01-30T06:55:14;14.40;;;10.95;;
51660;SDS011;37741;49.748;8.490;2024-01-30T06:57:42;15.40;;;10.30;;
51660;SDS011;37741;49.748;8.490;2024-01-30T07:00:08;15.63;;;10.85;;
51660;SDS011;37741;49.748;8.490;2024-01-30T07:02:34;15.40;;;10.65;;
51660;SDS011;37741;49.748;8.490;2024-01-30T07:05:00;14.38;;;10.00;;
51660;SDS011;37741;49.748;8.490;2024-01-30T07:07:25;13.40;;;10.00;;
51660;SDS011;37741;49.748;8.490;2024-01-30T07:09:51;13.15;;;9.73;;
51660;SDS011;37741;49.748;8.490;2024-01-30T07:12:21;15.30;;;10.32;;
51660;SDS011;37741;49.748;8.490;2024-01-30T07:14:47;12.90;;;9.35;;
51660;SDS011;37741;49.748;8.490;2024-01-30T07:17:13;13.60;;;10.48;;
51660;SDS011;37741;49.748;8.490;2024-01-30T07:19:39;13.50;;;9.73;;
51660;SDS011;37741;49.748;8.490;2024-01-30T07:22:05;14.45;;;10.25;;
51660;SDS011;37741;49.748;8.490;2024-01-30T07:24:30;16.15;;;10.85;;
51660;SDS011;37741;49.748;8.490;2024-01-30T07:26:59;14.43;;;10.05;;
51660;SDS011;37741;49.748;8.490;2024-01-30T07:29:28;13.50;;;9.95;;
51660;SDS011;37741;49.748;8.490;2024-01-30T07:31:53;13.20;;;9.15;;
51660;SDS011;37741;49.748;8.490;2024-01-30T07:34:19;12.80;;;9.15;;
51660;SDS011;37741;49.748;8.490;2024-01-30T07:36:44;14.13;;;10.13;;
51660;SDS011;37741;49.748;8.490;2024-01-30T07:39:12;11.70;;;9.25;;
51660;SDS011;37741;49.748;8.490;2024-01-30T07:41:37;11.88;;;9.70;;
51660;SDS011;37741;49.748;8.490;2024-01-30T07:44:03;10.65;;;8.48;;
51660;SDS011;37741;49.748;8.490;2024-01-30T07:46:29;12.93;;;9.23;;
51660;SDS011;37741;49.748;8.490;2024-01-30T07:48:55;13.77;;;9.95;;
51660;SDS011;37741;49.748;8.490;2024-01-30T07:51:22;11.70;;;9.23;;
51660;SDS011;37741;49.748;8.490;2024-01-30T07:53:49;12.55;;;9.02;;
51660;SDS011;37741;49.748;8.490;2024-01-30T07:56:19;13.65;;;9.82;;
51660;SDS011;37741;49.748;8.490;2024-01-30T07:58:47;12.25;;;8.85;;
51660;SDS011;37741;49.748;8.490;2024-01-30T08:01:14;15.02;;;8.55;;
51660;SDS011;37741;49.748;8.490;2024-01-30T08:03:43;12.60;;;8.38;;
51660;SDS011;37741;49.748;8.490;2024-01-30T08:06:11;12.35;;;9.13;;
51660;SDS011;37741;49.748;8.490;2024-01-30T08:08:39;11.02;;;8.65;;
51660;SDS011;37741;49.748;8.490;2024-01-30T08:11:05;12.23;;;9.35;;
51660;SDS011;37741;49.748;8.490;2024-01-30T08:13:31;13.85;;;9.43;;
51660;SDS011;37741;49.748;8.490;2024-01-30T08:16:04;14.13;;;9.85;;
51660;SDS011;37741;49.748;8.490;2024-01-30T08:18:30;11.65;;;8.85;;
51660;SDS011;37741;49.748;8.490;2024-01-30T08:20:55;11.90;;;9.07;;
51660;SDS011;37741;49.748;8.490;2024-01-30T08:23:21;15.20;;;8.70;;
51660;SDS011;37741;49.748;8.490;2024-01-30T08:25:47;12.13;;;8.32;;
51660;SDS011;37741;49.748;8.490;2024-01-30T08:28:12;11.20;;;8.57;;
51660;SDS011;37741;49.748;8.490;2024-01-30T08:30:38;14.75;;;9.48;;
51660;SDS011;37741;49.748;8.490;2024-01-30T08:33:06;11.68;;;8.50;;
51660;SDS011;37741;49.748;8.490;2024-01-30T08:35:34;13.68;;;9.23;;
51660;SDS011;37741;49.748;8.490;2024-01-30T08:38:09;11.98;;;9.32;;
51660;SDS011;37741;49.748;8.490;2024-01-30T08:40:37;15.27;;;10.10;;
51660;SDS011;37741;49.748;8.490;2024-01-30T08:43:03;13.02;;;9.00;;
51660;SDS011;37741;49.748;8.490;2024-01-30T08:45:29;12.63;;;8.68;;
51660;SDS011;37741;49.748;8.490;2024-01-30T08:47:55;13.18;;;9.65;;
51660;SDS011;37741;49.748;8.490;2024-01-30T08:50:21;12.65;;;9.43;;
51660;SDS011;37741;49.748;8.490;2024-01-30T08:52:49;11.57;;;8.52;;
51660;SDS011;37741;49.748;8.490;2024-01-30T08:55:15;11.95;;;9.38;;
51660;SDS011;37741;49.748;8.490;2024-01-30T08:57:41;12.75;;;10.50;;
51660;SDS011;37741;49.748;8.490;2024-01-30T09:00:06;12.80;;;9.35;;
51660;SDS011;37741;49.748;8.490;2024-01-30T09:02:34;13.90;;;9.98;;
51660;SDS011;37741;49.748;8.490;2024-01-30T09:05:00;12.57;;;9.57;;
51660;SDS011;37741;49.748;8.490;2024-01-30T09:07:26;12.25;;;9.75;;
51660;SDS011;37741;49.748;8.490;2024-01-30T09:09:52;13.43;;;10.27;;
51660;SDS011;37741;49.748;8.490;2024-01-30T09:12:17;13.60;;;9.88;;
51660;SDS011;37741;49.748;8.490;2024-01-30T09:14:43;14.95;;;10.35;;
51660;SDS011;37741;49.748;8.490;2024-01-30T09:17:09;16.00;;;11.48;;
51660;SDS011;37741;49.748;8.490;2024-01-30T09:19:37;14.68;;;10.55;;
51660;SDS011;37741;49.748;8.490;2024-01-30T09:22:03;14.60;;;10.13;;
51660;SDS011;37741;49.748;8.490;2024-01-30T09:24:29;14.30;;;10.90;;
51660;SDS011;37741;49.748;8.490;2024-01-30T09:26:54;13.82;;;10.93;;
51660;SDS011;37741;49.748;8.490;2024-01-30T09:29:20;15.43;;;12.20;;
51660;SDS011;37741;49.748;8.490;2024-01-30T09:31:46;17.40;;;11.35;;
51660;SDS011;37741;49.748;8.490;2024-01-30T09:34:12;18.27;;;12.07;;
51660;SDS011;37741;49.748;8.490;2024-01-30T09:36:39;15.60;;;11.25;;
51660;SDS011;37741;49.748;8.490;2024-01-30T09:39:04;19.58;;;12.10;;
51660;SDS011;37741;49.748;8.490;2024-01-30T09:41:37;18.02;;;12.90;;
51660;SDS011;37741;49.748;8.490;2024-01-30T09:44:13;15.45;;;12.07;;
51660;SDS011;37741;49.748;8.490;2024-01-30T09:46:41;19.50;;;14.23;;
51660;SDS011;37741;49.748;8.490;2024-01-30T09:49:08;19.95;;;13.10;;
51660;SDS011;37741;49.748;8.490;2024-01-30T09:51:34;16.55;;;13.30;;
51660;SDS011;37741;49.748;8.490;2024-01-30T09:54:01;17.58;;;13.70;;
51660;SDS011;37741;49.748;8.490;2024-01-30T09:56:28;17.27;;;12.85;;
51660;SDS011;37741;49.748;8.490;2024-01-30T09:58:54;25.73;;;13.13;;
51660;SDS011;37741;49.748;8.490;2024-01-30T10:01:20;15.52;;;12.55;;
51660;SDS011;37741;49.748;8.490;2024-01-30T10:03:46;18.88;;;12.98;;
51660;SDS011;37741;49.748;8.490;2024-01-30T10:06:12;17.25;;;13.88;;
51660;SDS011;37741;49.748;8.490;2024-01-30T10:08:39;19.73;;;12.25;;
51660;SDS011;37741;49.748;8.490;2024-01-30T10:11:05;25.52;;;14.10;;
51660;SDS011;37741;49.748;8.490;2024-01-30T10:13:31;18.83;;;13.77;;
51660;SDS011;37741;49.748;8.490;2024-01-30T10:15:57;17.55;;;13.63;;
51660;SDS011;37741;49.748;8.490;2024-01-30T10:18:23;17.17;;;12.30;;
51660;SDS011;37741;49.748;8.490;2024-01-30T10:20:49;15.48;;;11.70;;
51660;SDS011;37741;49.748;8.490;2024-01-30T10:23:15;18.20;;;13.95;;
51660;SDS011;37741;49.748;8.490;2024-01-30T10:25:41;17.33;;;12.85;;
51660;SDS011;37741;49.748;8.490;2024-01-30T10:28:13;22.52;;;15.80;;
51660;SDS011;37741;49.748;8.490;2024-01-30T10:30:42;18.08;;;13.60;;
51660;SDS011;37741;49.748;8.490;2024-01-30T10:33:08;18.98;;;13.60;;
51660;SDS011;37741;49.748;8.490;2024-01-30T10:35:34;20.08;;;13.63;;
51660;SDS011;37741;49.748;8.490;2024-01-30T10:38:00;17.60;;;13.93;;
51660;SDS011;37741;49.748;8.490;2024-01-30T10:40:29;17.80;;;14.77;;
51660;SDS011;37741;49.748;8.490;2024-01-30T10:42:55;19.58;;;14.55;;
51660;SDS011;37741;49.748;8.490;2024-01-30T10:45:22;18.20;;;14.80;;
51660;SDS011;37741;49.748;8.490;2024-01-30T10:47:50;17.13;;;13.80;;
51660;SDS011;37741;49.748;8.490;2024-01-30T10:50:19;20.13;;;13.82;;
51660;SDS011;37741;49.748;8.490;2024-01-30T10:52:45;19.30;;;14.02;;
51660;SDS011;37741;49.748;8.490;2024-01-30T10:55:12;17.60;;;14.18;;
51660;SDS011;37741;49.748;8.490;2024-01-30T10:57:40;17.02;;;13.57;;
51660;SDS011;37741;49.748;8.490;2024-01-30T11:00:10;17.35;;;13.48;;
51660;SDS011;37741;49.748;8.490;2024-01-30T11:02:41;18.65;;;13.63;;
51660;SDS011;37741;49.748;8.490;2024-01-30T11:05:12;18.52;;;14.05;;
51660;SDS011;37741;49.748;8.490;2024-01-30T11:07:40;19.65;;;14.80;;
51660;SDS011;37741;49.748;8.490;2024-01-30T11:10:06;19.10;;;15.05;;
51660;SDS011;37741;49.748;8.490;2024-01-30T11:12:37;18.40;;;13.35;;
51660;SDS011;37741;49.748;8.490;2024-01-30T11:15:15;18.95;;;13.93;;
51660;SDS011;37741;49.748;8.490;2024-01-30T11:20:14;18.58;;;13.38;;
51660;SDS011;37741;49.748;8.490;2024-01-30T11:22:42;18.45;;;13.90;;
51660;SDS011;37741;49.748;8.490;2024-01-30T11:25:13;18.50;;;14.25;;
51660;SDS011;37741;49.748;8.490;2024-01-30T11:27:40;18.08;;;15.25;;
51660;SDS011;37741;49.748;8.490;2024-01-30T11:30:07;19.58;;;16.08;;
51660;SDS011;37741;49.748;8.490;2024-01-30T11:32:33;18.38;;;14.68;;
51660;SDS011;37741;49.748;8.490;2024-01-30T11:34:59;21.55;;;15.13;;
51660;SDS011;37741;49.748;8.490;2024-01-30T11:37:25;18.27;;;15.52;;
51660;SDS011;37741;49.748;8.490;2024-01-30T11:39:53;22.05;;;16.77;;
51660;SDS011;37741;49.748;8.490;2024-01-30T11:42:19;19.13;;;15.75;;
51660;SDS011;37741;49.748;8.490;2024-01-30T11:44:49;21.30;;;16.98;;
51660;SDS011;37741;49.748;8.490;2024-01-30T11:47:15;24.65;;;17.23;;
51660;SDS011;37741;49.748;8.490;2024-01-30T11:49:42;20.67;;;16.35;;
51660;SDS011;37741;49.748;8.490;2024-01-30T11:52:08;23.38;;;17.85;;
51660;SDS011;37741;49.748;8.490;2024-01-30T11:54:35;22.58;;;17.40;;
51660;SDS011;37741;49.748;8.490;2024-01-30T11:57:03;18.55;;;15.60;;
51660;SDS011;37741;49.748;8.490;2024-01-30T11:59:30;19.95;;;15.77;;
51660;SDS011;37741;49.748;8.490;2024-01-30T12:01:55;20.85;;;16.83;;
51660;SDS011;37741;49.748;8.490;2024-01-30T12:04:21;22.15;;;16.15;;
51660;SDS011;37741;49.748;8.490;2024-01-30T12:06:50;20.00;;;14.65;;
51660;SDS011;37741;49.748;8.490;2024-01-30T12:09:25;20.10;;;16.02;;
51660;SDS011;37741;49.748;8.490;2024-01-30T12:11:55;21.83;;;15.25;;
51660;SDS011;37741;49.748;8.490;2024-01-30T12:14:22;20.83;;;15.85;;
51660;SDS011;37741;49.748;8.490;2024-01-30T12:16:50;18.05;;;15.32;;
51660;SDS011;37741;49.748;8.490;2024-01-30T12:19:26;20.42;;;15.68;;
51660;SDS011;37741;49.748;8.490;2024-01-30T12:21:58;22.15;;;16.92;;
51660;SDS011;37741;49.748;8.490;2024-01-30T12:24:27;18.05;;;14.75;;
51660;SDS011;37741;49.748;8.490;2024-01-30T12:26:58;21.45;;;15.13;;
51660;SDS011;37741;49.748;8.490;2024-01-30T12:29:25;22.20;;;15.52;;
51660;SDS011;37741;49.748;8.490;2024-01-30T12:31:54;19.60;;;15.05;;
51660;SDS011;37741;49.748;8.490;2024-01-30T12:34:20;19.95;;;14.85;;
51660;SDS011;37741;49.748;8.490;2024-01-30T12:36:49;22.42;;;15.10;;
51660;SDS011;37741;49.748;8.490;2024-01-30T12:39:15;21.58;;;15.85;;
51660;SDS011;37741;49.748;8.490;2024-01-30T12:41:41;18.83;;;14.02;;
51660;SDS011;37741;49.748;8.490;2024-01-30T12:44:07;19.25;;;13.45;;
51660;SDS011;37741;49.748;8.490;2024-01-30T12:46:36;16.13;;;13.10;;
51660;SDS011;37741;49.748;8.490;2024-01-30T12:49:02;16.00;;;13.43;;
51660;SDS011;37741;49.748;8.490;2024-01-30T12:51:28;19.75;;;14.40;;
51660;SDS011;37741;49.748;8.490;2024-01-30T12:53:54;16.02;;;13.43;;
51660;SDS011;37741;49.748;8.490;2024-01-30T12:56:19;16.77;;;13.20;;
51660;SDS011;37741;49.748;8.490;2024-01-30T12:58:45;19.20;;;12.80;;
51660;SDS011;37741;49.748;8.490;2024-01-30T13:01:11;19.30;;;13.30;;
51660;SDS011;37741;49.748;8.490;2024-01-30T13:03:37;16.90;;;12.57;;
51660;SDS011;37741;49.748;8.490;2024-01-30T13:06:03;17.15;;;12.50;;
51660;SDS011;37741;49.748;8.490;2024-01-30T13:08:29;16.23;;;11.25;;
51660;SDS011;37741;49.748;8.490;2024-01-30T13:10:54;15.57;;;11.05;;
51660;SDS011;37741;49.748;8.490;2024-01-30T13:13:26;17.90;;;11.82;;
51660;SDS011;37741;49.748;8.490;2024-01-30T13:15:52;13.50;;;10.57;;
51660;SDS011;37741;49.748;8.490;2024-01-30T13:18:17;15.60;;;11.02;;
51660;SDS011;37741;49.748;8.490;2024-01-30T13:20:43;15.63;;;11.88;;
51660;SDS011;37741;49.748;8.490;2024-01-30T13:23:09;14.27;;;11.07;;
51660;SDS011;37741;49.748;8.490;2024-01-30T13:25:34;18.88;;;12.60;;
51660;SDS011;37741;49.748;8.490;2024-01-30T13:28:00;12.93;;;10.95;;
51660;SDS011;37741;49.748;8.490;2024-01-30T13:30:26;15.35;;;10.88;;
51660;SDS011;37741;49.748;8.490;2024-01-30T13:32:52;15.20;;;10.48;;
51660;SDS011;37741;49.748;8.490;2024-01-30T13:35:19;14.30;;;10.95;;
51660;SDS011;37741;49.748;8.490;2024-01-30T13:37:44;13.43;;;9.90;;
51660;SDS011;37741;49.748;8.490;2024-01-30T13:40:12;15.15;;;9.90;;
51660;SDS011;37741;49.748;8.490;2024-01-30T13:42:39;14.60;;;10.75;;
51660;SDS011;37741;49.748;8.490;2024-01-30T13:45:05;15.68;;;10.00;;
51660;SDS011;37741;49.748;8.490;2024-01-30T13:47:31;14.68;;;10.95;;
51660;SDS011;37741;49.748;8.490;2024-01-30T13:49:56;13.55;;;10.10;;
51660;SDS011;37741;49.748;8.490;2024-01-30T13:52:22;15.45;;;10.50;;
51660;SDS011;37741;49.748;8.490;2024-01-30T13:54:48;14.35;;;10.70;;
51660;SDS011;37741;49.748;8.490;2024-01-30T13:57:13;14.00;;;10.13;;
51660;SDS011;37741;49.748;8.490;2024-01-30T13:59:39;14.38;;;10.27;;
51660;SDS011;37741;49.748;8.490;2024-01-30T14:02:05;16.92;;;10.00;;
51660;SDS011;37741;49.748;8.490;2024-01-30T14:04:33;14.80;;;10.32;;
51660;SDS011;37741;49.748;8.490;2024-01-30T14:06:59;14.73;;;10.15;;
51660;SDS011;37741;49.748;8.490;2024-01-30T14:09:24;13.88;;;9.90;;
51660;SDS011;37741;49.748;8.490;2024-01-30T14:11:50;14.27;;;10.38;;
51660;SDS011;37741;49.748;8.490;2024-01-30T14:14:16;12.48;;;9.70;;
51660;SDS011;37741;49.748;8.490;2024-01-30T14:16:41;13.88;;;10.18;;
51660;SDS011;37741;49.748;8.490;2024-01-30T14:19:07;11.80;;;9.10;;
51660;SDS011;37741;49.748;8.490;2024-01-30T14:21:33;14.93;;;9.57;;
51660;SDS011;37741;49.748;8.490;2024-01-30T14:23:58;12.50;;;8.98;;